San Juan, PR (00936)

5:58 PM AST on September 16, 2014 (GMT -0400)
San Ignacio | Change Station
CLOSE
Current Station
Personal Weather Station
Location: San Juan, PR
Elevation: 171 ft
Nearby Weather Stations

Elev 171 ft 18.38 °N, 66.07 °W | Updated 18 seconds ago

Scattered Clouds
Scattered Clouds
84.6 °F
Feels Like 94 °F
N
4.9
Wind Variable Wind from East
Gusts 11.4 mph

Today
High -- | Low -- °F
--% Chance of Precip.
Yesterday
High -- | Low -- °F
Precip. -- in
6:12 AM 6:25 PM
Last Quarter, 42% visible
Pressure 29.93 in
Visibility 10.0 miles
Clouds Few 4400 ft
Scattered Clouds 5000 ft
Scattered Clouds 10000 ft
Heat Index 94 °F
Dew Point 77 °F
Humidity 77%
Rainfall 0.00 in
Snow Depth Not available.
UV 1 out of 12
Pollen Not available.
Air Quality Not available.
Flu Activity Not available.
METAR TJSJ 162056Z 07012KT 10SM FEW044 SCT050 SCT100 29/24 A2993 RMK AO2 SLP133 T02890244 56007

More Conditions Fewer Conditions

Pressure 29.93 in
Visibility 10.0 miles
Clouds Few 4400 ft
Scattered Clouds 5000 ft
Scattered Clouds 10000 ft
Heat Index 94 °F
Dew Point 77 °F
Humidity 77%
Rainfall 0.00 in
Snow Depth Not available.
UV 1 out of 12
Pollen Not available.
Air Quality Not available.
Flu Activity Not available.
METAR TJSJ 162056Z 07012KT 10SM FEW044 SCT050 SCT100 29/24 A2993 RMK AO2 SLP133 T02890244 56007

More Conditions Fewer Conditions

10-Day Weather Forecast

Almanac

Astronomy

Sep. 16, 2014 Rise Set
Actual Time 6:12 AM AST 6:25 PM AST
Civil Twilight 5:50 AM AST 6:47 PM AST
Nautical Twilight 5:24 AM AST 7:12 PM AST
Astronomical Twilight 4:59 AM AST 7:38 PM AST
Moon No Moon Rise 1:10 PM AST
Length of Visible Light 12h 57m
Length of Day
12h 13m
Tomorrow will be 1m 2s shorter.
Last Quarter, 42% of the Moon is Illuminated
Today
Last Quarter
Sep 24
New
Oct 1
First Quarter
Oct 8
Full
Oct 15
Last Quarter

Community

WunderPhotos

Upload Photos

1,753,895 photos uploaded!

Nearby

Snow Depth

Station Depth Elevation
No new snow has been reported.

Earthquake Activity

City Distance Mag. Time & Date
No recent earthquake activity has been reported nearby.
Minimum magnitude displayed is 2.5.

Coastal Water Temperatures

Place Temperature
San Juan, PR 86.0 °F
Mayaguez, PR 86.0 °F
Esperanza, PR 86.0 °F

Nearby Weather Stations